Flight Track Log - Related Links

Times and Time Zones

All times are in EDT time to prevent confusion due to time zone crossing. See the XA-LFA flight status page for this flight to view local times or setup timezone preferences in your user account.

Time Position Orientation Groundspeed Altitude Reporting Facility
EDT Latitude Longitude Course Direction KTS MPH feet Rate Location/Type
Wed 10:21:00 AM 25.7668 -97.6175 90° East  Level FlightAware Approximate
Wed 10:22:00 AM 25.7667 -97.4904 90° East  Level FlightAware Approximate
Wed 10:23:00 AM 25.7583 -97.3637 94° East  Level FlightAware Approximate
Wed 10:24:00 AM 25.7493 -97.2370 94° East  Level FlightAware Approximate
Wed 10:25:00 AM 25.7403 -97.1103 95° East  Level FlightAware Approximate
Wed 10:26:00 AM 25.7311 -96.9836 95° East  Level FlightAware Approximate
Wed 10:27:00 AM 25.7218 -96.8569 95° East  Level FlightAware Approximate
Wed 10:28:00 AM 25.7124 -96.7303 95° East  Level FlightAware Approximate
Wed 10:29:00 AM 25.7029 -96.6037 95° East  Level FlightAware Approximate
Wed 10:29:17 AM 25.7694 -97.5094 95° East 430 495 41,000  Level Houston Center
Wed 10:30:00 AM 25.6933 -96.4771 95° East  Level FlightAware Approximate
Wed 10:30:19 AM 25.7619 -97.3783 94° East 427 491 41,000  Level Houston Center
Wed 10:31:00 AM 25.6835 -96.3505 95° East  Level FlightAware Approximate
Wed 10:31:21 AM 25.7528 -97.2381 94° East 427 491 41,000  Level Houston Center
Wed 10:32:00 AM 25.6737 -96.2240 95° East  Level FlightAware Approximate
Wed 10:32:23 AM 25.7447 -97.1053 94° East 431 496 41,000  Level Houston Center
Wed 10:33:00 AM 25.6637 -96.0975 95° East  Level FlightAware Approximate
Wed 10:33:25 AM 25.7369 -96.9942 94° East 426 490 41,000  Level Houston Center
Wed 10:34:00 AM 25.6537 -95.9710 95° East  Level FlightAware Approximate
Wed 10:34:27 AM 25.7281 -96.8347 94° East 433 498 40,900  Level Houston Center
Wed 10:35:29 AM 25.7175 -96.7039 95° East 429 494 40,900  Level Houston Center
Wed 10:36:32 AM 25.7083 -96.5725 94° East 427 491 40,900 48 Level Houston Center
Wed 10:37:34 AM 25.7000 -96.4389 94° East 433 498 41,000 48 Climbing Houston Center
Wed 10:38:36 AM 25.6897 -96.3072 95° East 433 498 41,000 -48 Level Houston Center
Wed 10:39:38 AM 25.6797 -96.1483 94° East 432 497 40,900  Descending Houston Center
Wed 10:40:40 AM 25.6700 -96.0169 95° East 429 494 41,000  Climbing Houston Center
Wed 10:41:42 AM 25.6600 -95.8839 95° East 433 498 40,900 -48 Descending Houston Center
Wed 10:42:44 AM 25.6511 -95.7519 94° East 432 497 40,900  Level Houston Center
Wed 10:43:46 AM 25.6403 -95.6222 95° East 427 491 40,900 48 Level Houston Center
Wed 10:44:49 AM 25.6342 -95.4922 93° East 424 488 41,000  Climbing Houston Center
Wed 10:45:51 AM 25.6589 -95.3353 80° East 427 491 40,900  Descending Houston Center
Wed 10:46:28 AM 25.6725 -95.2558 79° East 435 501 41,000 61 Climbing Houston Center
Wed 10:47:30 AM 25.6900 -95.1325 81° East 434 499 41,000 -48 Level Houston Center
Wed 10:48:32 AM 25.7100 -95.0008 80° East 434 499 40,900  Descending Houston Center
Wed 10:49:34 AM 25.7333 -94.8414 81° East 436 502 41,000  Climbing Houston Center
Wed 10:50:36 AM 25.7522 -94.7086 81° East 438 504 40,900 -48 Descending Houston Center
Wed 10:51:38 AM 25.7711 -94.5750 81° East 439 505 40,900 48 Level Houston Center
Wed 10:52:40 AM 25.7911 -94.4414 81° East 439 505 41,000  Climbing Houston Center
Wed 10:53:42 AM 25.8136 -94.2817 81° East 439 505 40,900 -2 Descending Houston Center
Wed 10:55:00 AM 25.8332 -94.1181 82° East  Level FlightAware Approximate
Wed 11:02:00 AM 25.9508 -93.2389 81° East  Level FlightAware Approximate
Wed 11:03:00 AM 25.9671 -93.1131 82° East  Level FlightAware Approximate
Wed 11:04:00 AM 25.9834 -92.9873 82° East  Level FlightAware Approximate
Wed 11:05:00 AM 25.9995 -92.8615 82° East  Level FlightAware Approximate
Wed 11:06:00 AM 26.0156 -92.7357 82° East  Level FlightAware Approximate
Wed 11:07:00 AM 26.0315 -92.6098 82° East  Level FlightAware Approximate
Wed 11:08:00 AM 26.0473 -92.4839 82° East  Level FlightAware Approximate
Wed 11:09:00 AM 26.0631 -92.3579 82° East  Level FlightAware Approximate
Wed 11:10:00 AM 26.0787 -92.2320 82° East  Level FlightAware Approximate
Wed 11:11:00 AM 26.0942 -92.1060 82° East  Level FlightAware Approximate
Wed 11:12:00 AM 26.1096 -91.9799 82° East  Level FlightAware Approximate
Wed 11:13:00 AM 26.1248 -91.8538 82° East  Level FlightAware Approximate
Wed 11:14:00 AM 26.1406 -91.7278 82° East  Level FlightAware Approximate
Wed 11:15:00 AM 26.1571 -91.6019 82° East  Level FlightAware Approximate
Wed 11:16:00 AM 26.1735 -91.4759 82° East  Level FlightAware Approximate
Wed 11:17:00 AM 26.1894 -91.3499 82° East  Level FlightAware Approximate
Wed 11:18:00 AM 26.2046 -91.2237 82° East  Level FlightAware Approximate
Wed 11:19:00 AM 26.2197 -91.0975 82° East  Level FlightAware Approximate
Wed 11:20:00 AM 26.2347 -90.9712 82° East  Level FlightAware Approximate
Wed 11:21:00 AM 26.2496 -90.8450 82° East  Level FlightAware Approximate
Wed 11:22:00 AM 26.2644 -90.7187 83° East  Level FlightAware Approximate
Wed 11:23:00 AM 26.2791 -90.5923 83° East  Level FlightAware Approximate
Wed 11:24:00 AM 26.2936 -90.4660 83° East  Level FlightAware Approximate
Wed 11:25:00 AM 26.3081 -90.3395 83° East  Level FlightAware Approximate
Wed 11:26:00 AM 26.3224 -90.2131 83° East  Level FlightAware Approximate
Wed 11:27:00 AM 26.3366 -90.0867 83° East  Level FlightAware Approximate
Wed 11:28:00 AM 26.3500 -89.9601 90° East  Level FlightAware Approximate
Wed 11:29:00 AM 26.3459 -89.8328 95° East  Level FlightAware Approximate
Wed 11:30:00 AM 26.3354 -89.7059 95° East  Level FlightAware Approximate
Wed 11:31:00 AM 26.3248 -89.5790 95° East  Level FlightAware Approximate
Wed 11:32:00 AM 26.3139 -89.1629 92° East  Level Estimated
Wed 11:33:00 AM 26.3018 -88.7469 92° East  Level Estimated
Wed 11:34:00 AM 26.2885 -88.3310 92° East  Level Estimated
Wed 11:35:00 AM 26.2740 -87.9151 92° East  Level Estimated
Wed 11:36:00 AM 26.2584 -87.4994 92° East  Level Estimated
Wed 11:37:00 AM 26.2415 -87.0838 92° East  Level Estimated
Wed 11:38:00 AM 26.2234 -86.6683 93° East  Level Estimated
Wed 11:39:00 AM 26.2042 -86.2530 93° East  Level Estimated
Wed 11:40:00 AM 26.1837 -85.8378 93° East  Level Estimated
Wed 11:41:00 AM 26.1621 -85.4227 93° East  Level Estimated
Wed 11:42:00 AM 26.1393 -85.0078 93° East  Level Estimated
Wed 11:43:00 AM 26.1152 -84.5931 94° East  Level Estimated
Wed 11:44:00 AM 26.0900 -84.1785 94° East  Level Estimated
Wed 11:45:00 AM 26.0636 -83.7641 94° East  Level Estimated
Wed 11:46:00 AM 26.0361 -83.3499 94° East  Level Estimated
Wed 11:47:00 AM 26.0073 -82.9359 94° East  Level Estimated
Wed 11:48:00 AM 25.9774 -82.5222 95° East  Level Estimated
Wed 11:49:00 AM 25.9463 -82.1086 95° East  Level Estimated
Wed 11:49:09 AM 26.1247 -86.8519 96° East 462 532 40,900  Level Houston Center
Wed 11:50:00 AM 25.9140 -81.6953 95° East  Level Estimated
Wed 11:50:11 AM 26.1108 -86.6903 95° East 452 520 40,900  Level Houston Center
Wed 11:51:00 AM 25.8806 -81.2821 95° East  Level Estimated
Wed 11:51:13 AM 26.1000 -86.5558 95° East 446 513 40,900  Level Houston Center
Wed 11:52:00 AM 25.8459 -80.8693 95° East  Level Estimated
Wed 11:52:15 AM 26.0878 -86.4200 96° East 444 511 41,000  Level Houston Center
Wed 11:53:00 AM 25.8101 -80.4566 95° East  Level Estimated
Wed 11:53:17 AM 26.0747 -86.2719 96° East 444 511 41,000  Level Houston Center
Wed 11:54:00 AM 25.7954 -80.2901 96° East  Level Estimated
Wed 11:54:20 AM 26.0611 -86.1353 96° East 445 512 40,900  Level Houston Center
Wed 11:55:22 AM 26.0483 -85.9983 96° East 445 512 40,900  Level Houston Center
Wed 11:56:24 AM 26.0444 -85.8622 92° East 444 511 40,900 48 Level Houston Center
Wed 11:57:26 AM 26.0411 -85.7256 92° East 444 511 41,000 48 Climbing Houston Center
Wed 11:58:28 AM 26.0367 -85.5608 92° East 446 513 41,000 -48 Level Houston Center
Wed 11:59:30 AM 26.0417 -85.4247 88° East 443 510 40,900  Descending Houston Center
Wed 12:00:32 PM 26.0467 -85.2886 88° East 442 509 41,000  Climbing Houston Center
Wed 12:01:35 PM 26.0519 -85.1528 87° East 442 509 40,900  Descending Houston Center
Wed 12:02:37 PM 26.0583 -85.0178 87° East 440 506 41,000  Climbing Houston Center
Wed 12:03:39 PM 26.0633 -84.8544 88° East 439 505 40,900 -48 Descending Houston Center
Wed 12:04:41 PM 26.0686 -84.7197 87° East 438 504 40,900  Level Houston Center
Wed 12:05:43 PM 26.0742 -84.5831 87° East 443 510 40,900 48 Level Houston Center
Wed 12:06:45 PM 26.0786 -84.4475 88° East 442 509 41,000  Climbing Houston Center
Wed 12:07:47 PM 26.0842 -84.3122 87° East 440 506 40,900 -48 Descending Houston Center
Wed 12:08:50 PM 26.0892 -84.1772 88° East 438 504 40,900 48 Level Houston Center
Wed 12:09:52 PM 26.0947 -84.0153 88° East 438 504 41,000  Climbing Houston Center
Wed 12:10:54 PM 26.1000 -83.8711 88° East 429 494 40,900  Descending Miami Center
Wed 12:11:54 PM 26.0983 -83.7303 91° East 440 506 41,000  Climbing Miami Center
Wed 12:12:54 PM 26.1047 -83.5964 87° East 440 506 40,900 -50 Descending Miami Center
Wed 12:13:54 PM 26.1108 -83.4581 87° East 440 506 40,900 45 Level Miami Center
Wed 12:15:06 PM 26.1147 -83.3267 88° East 440 506 41,000 45 Climbing Miami Center
Wed 12:16:06 PM 26.1031 -83.1667 95° East 440 506 41,000  Level Miami Center
Wed 12:17:06 PM 26.0900 -83.0272 96° East 445 512 41,000  Level Miami Center
Wed 12:18:06 PM 26.0769 -82.8903 96° East 445 512 41,000  Level Miami Center
Wed 12:19:06 PM 26.0658 -82.7556 95° East 445 512 41,000  Level Miami Center
Wed 12:20:06 PM 26.0525 -82.6164 96° East 445 512 41,000 -700 Level Miami Center
Wed 12:21:06 PM 26.0433 -82.4819 94° East 445 512 39,600 -1,800 Descending Miami Center
Wed 12:22:06 PM 26.0317 -82.3450 95° East 445 512 37,400 -2,150 Descending Miami Center
Wed 12:23:06 PM 26.0183 -82.2036 96° East 451 519 35,300 -2,150 Descending Miami Center
Wed 12:24:06 PM 26.0044 -82.0619 96° East 451 519 33,100 -2,250 Descending Miami Center
Wed 12:25:06 PM 25.9908 -81.9181 96° East 464 534 30,800 -2,300 Descending Miami Center
Wed 12:26:06 PM 25.9750 -81.7675 97° East 475 547 28,500 -2,300 Descending Miami Center
Wed 12:27:06 PM 25.9614 -81.6144 96° East 486 559 26,200 -2,350 Descending Miami Center
Wed 12:28:06 PM 25.9431 -81.4658 98° East 486 559 23,800 -2,350 Descending Miami Center
Wed 12:29:06 PM 25.9289 -81.3175 96° East 486 559 21,500 -2,250 Descending Miami Center
Wed 12:30:06 PM 25.9164 -81.1808 96° East 472 543 19,300 -2,082 Descending Miami Center
Wed 12:30:44 PM 25.9058 -81.1089 99° East 384 442 18,100 -1,800 Descending Miami Center
Wed 12:32:06 PM 25.8917 -80.9492 96° East 386 444 15,700 -1,648 Descending Miami Center
Wed 12:33:06 PM 25.8778 -80.8400 98° East 366 421 14,200 -1,500 Descending Miami Center
Wed 12:34:06 PM 25.8661 -80.7289 97° East 359 413 12,700 -1,550 Descending Miami Center
Wed 12:35:06 PM 25.8583 -80.6317 95° East 338 389 11,100 -1,700 Descending Miami Center
Wed 12:36:06 PM 25.8503 -80.5367 95° East 319 367 9,300 -1,550 Descending Miami Center
Wed 12:37:06 PM 25.8442 -80.4511 95° East 298 343 8,000 -650 Descending Miami Center
Wed 12:38:06 PM 25.8417 -80.3750 92° East 269 310 8,000  Level Miami Center
Wed 12:39:06 PM 25.8539 -80.3061 79° East 239 275 8,000 -150 Level Miami Center
Wed 12:40:06 PM 25.8681 -80.2350 78° East 228 262 7,700 -904 Descending Miami Center
Wed 12:41:32 PM 25.8847 -80.1431 79° East 223 257 5,800 -1,388 Descending Miami Center
Wed 12:42:33 PM 25.8800 -80.0736 94° East 218 251 4,300 -1,230 Descending Miami Center
Wed 12:43:34 PM 25.8236 -80.0675 174° South 203 234 3,300 -639 Descending Miami Center
Wed 12:44:35 PM 25.8078 -80.1225 252° West 189 217 3,000 -672 Descending Miami Center
Wed 12:45:30 PM 25.8047 -80.1756 266° West 188 216 2,000 -983 Descending Miami Center
Wed 12:46:31 PM 25.8056 -80.2239 271° West 151 174 1,100 -761 Descending Miami Center
Wed 12:47:44 PM 25.8003 -80.2675 262° West 118 136 300 -658 Descending Miami Center
Wed 12:49:00 PM 25.7833 -80.2833 247° West  Level FlightAware Approximate

Login

Don't have an account? Register now (free) for customized features, flight alerts, and more!